Accueil
METAR-TAF:

METAR-TAF

Aéroports :

Aéroport international de Norwich

Norwich, Angleterre

latitude: 52-38N, longitude: 001-18E, altitude: 14 m

Observation

Le bulletin a été fait il y a 39 minutes, à 10:20 UTC
Vent 5 kt de sud-ouest, variant entre sud et ouest/sud-ouest
Température 14°C
Humidité 77%
Pression 1031 hPa
Visibilité 10 km ou plus
pas de nuages en-dessous de 1500 mètres et pas de cumulonimbus.

METAR: EGSH 201020Z 22005KT 190V250 CAVOK 14/10 Q1031 NOSIG

Heure: 11:59 (10:59 UTC)

Prévision

Le bulletin a été fait il y a 3 heures et 0 minutes, à 07:59 UTC
Prévision valable du 20 à 09 UTC au 20 à 18 UTC
Vent 4 kt de ouest/sud-ouest
Visibilité: 6000 m
Quelques nuages à une hauteur de 4500 ft
Evoluant progressivement
du 20 à 09 UTC au 20 à 12 UTC
Visibilité 10 km ou plus

TAF: EGSH 200759Z 2009/2018 24004KT 6000 FEW045 BECMG 2009/2012 9999

Observations et prévisions météorologiques de plus de 4000 aéroports (messages METAR et TAF).

Les stations disponibles sont représentées par des disques jaunes et rouges sur la carte.

Passer la souris dessus pour voir le nom de la station.

Cliquer dessus pour voir les observations et prévisions météorologiques.

Pour changer de carte: cliquez sur les boutons verts avec une croix noire pour zoomer, sur le bouton vert avec un tiret pour effectuer un zoom arrière, ou sur les flèches vertes pour les cartes adjacentes.


METAR-TAF: